sensor_id;sensor_type;location;lat;lon;timestamp;pressure;altitude;pressure_sealevel;temperature;humidity
44839;BME280;30576;42.098;24.876;2023-03-25T00:01:53;99543.31;;;9.47;65.67
44839;BME280;30576;42.098;24.876;2023-03-25T00:04:18;99538.78;;;9.58;65.86
44839;BME280;30576;42.098;24.876;2023-03-25T00:06:43;99527.56;;;9.44;66.37
44839;BME280;30576;42.098;24.876;2023-03-25T00:09:09;99523.25;;;9.38;66.32
44839;BME280;30576;42.098;24.876;2023-03-25T00:11:35;99521.44;;;9.40;66.12
44839;BME280;30576;42.098;24.876;2023-03-25T00:14:00;99517.31;;;9.21;67.42
44839;BME280;30576;42.098;24.876;2023-03-25T00:16:25;99523.38;;;9.27;67.09
44839;BME280;30576;42.098;24.876;2023-03-25T00:18:51;99523.59;;;9.10;68.10
44839;BME280;30576;42.098;24.876;2023-03-25T00:21:16;99518.94;;;9.29;67.31
44839;BME280;30576;42.098;24.876;2023-03-25T00:23:43;99527.84;;;9.21;67.19
44839;BME280;30576;42.098;24.876;2023-03-25T00:26:08;99522.97;;;8.88;67.86
44839;BME280;30576;42.098;24.876;2023-03-25T00:28:34;99518.56;;;8.89;68.22
44839;BME280;30576;42.098;24.876;2023-03-25T00:31:01;99525.56;;;8.91;68.54
44839;BME280;30576;42.098;24.876;2023-03-25T00:33:27;99516.75;;;8.94;68.69
44839;BME280;30576;42.098;24.876;2023-03-25T00:35:53;99521.22;;;8.87;68.36
44839;BME280;30576;42.098;24.876;2023-03-25T00:38:23;99523.69;;;9.01;67.88
44839;BME280;30576;42.098;24.876;2023-03-25T00:40:49;99521.16;;;8.93;68.24
44839;BME280;30576;42.098;24.876;2023-03-25T00:43:17;99522.84;;;8.99;68.25
44839;BME280;30576;42.098;24.876;2023-03-25T00:45:42;99514.03;;;9.00;68.29
44839;BME280;30576;42.098;24.876;2023-03-25T00:48:07;99507.16;;;8.91;68.09
44839;BME280;30576;42.098;24.876;2023-03-25T00:50:32;99507.19;;;8.88;68.71
44839;BME280;30576;42.098;24.876;2023-03-25T00:52:58;99506.19;;;8.97;68.43
44839;BME280;30576;42.098;24.876;2023-03-25T00:55:23;99499.97;;;9.04;68.40
44839;BME280;30576;42.098;24.876;2023-03-25T00:57:49;99505.00;;;9.23;67.29
44839;BME280;30576;42.098;24.876;2023-03-25T01:00:15;99491.94;;;9.15;67.69
44839;BME280;30576;42.098;24.876;2023-03-25T01:02:41;99505.94;;;9.19;66.88
44839;BME280;30576;42.098;24.876;2023-03-25T01:05:07;99499.91;;;9.09;67.15
44839;BME280;30576;42.098;24.876;2023-03-25T01:07:34;99499.88;;;9.12;67.15
44839;BME280;30576;42.098;24.876;2023-03-25T01:09:59;99496.50;;;9.02;67.35
44839;BME280;30576;42.098;24.876;2023-03-25T01:12:25;99492.13;;;9.01;67.02
44839;BME280;30576;42.098;24.876;2023-03-25T01:14:51;99495.75;;;8.88;67.29
44839;BME280;30576;42.098;24.876;2023-03-25T01:17:17;99494.94;;;8.83;67.27
44839;BME280;30576;42.098;24.876;2023-03-25T01:19:43;99495.03;;;8.75;68.06
44839;BME280;30576;42.098;24.876;2023-03-25T01:22:08;99492.38;;;8.78;67.76
44839;BME280;30576;42.098;24.876;2023-03-25T01:24:34;99488.84;;;8.81;67.38
44839;BME280;30576;42.098;24.876;2023-03-25T01:26:59;99498.47;;;8.82;67.60
44839;BME280;30576;42.098;24.876;2023-03-25T01:29:24;99486.22;;;8.81;67.28
44839;BME280;30576;42.098;24.876;2023-03-25T01:31:50;99489.66;;;8.86;66.62
44839;BME280;30576;42.098;24.876;2023-03-25T01:34:15;99489.84;;;8.67;67.04
44839;BME280;30576;42.098;24.876;2023-03-25T01:36:41;99482.09;;;8.55;67.82
44839;BME280;30576;42.098;24.876;2023-03-25T01:39:10;99474.19;;;8.58;67.96
44839;BME280;30576;42.098;24.876;2023-03-25T01:41:36;99468.97;;;8.53;67.94
44839;BME280;30576;42.098;24.876;2023-03-25T01:46:48;99458.47;;;8.52;67.67
44839;BME280;30576;42.098;24.876;2023-03-25T01:49:26;99462.88;;;8.50;67.49
44839;BME280;30576;42.098;24.876;2023-03-25T01:51:58;99458.63;;;8.33;68.67
44839;BME280;30576;42.098;24.876;2023-03-25T01:54:25;99455.16;;;8.30;68.58
44839;BME280;30576;42.098;24.876;2023-03-25T01:56:51;99455.06;;;8.39;68.20
44839;BME280;30576;42.098;24.876;2023-03-25T01:59:18;99447.16;;;8.44;68.47
44839;BME280;30576;42.098;24.876;2023-03-25T02:01:44;99439.28;;;8.42;68.52
44839;BME280;30576;42.098;24.876;2023-03-25T02:04:11;99439.38;;;8.33;69.46
44839;BME280;30576;42.098;24.876;2023-03-25T02:06:39;99439.28;;;8.44;69.16
44839;BME280;30576;42.098;24.876;2023-03-25T02:09:06;99433.09;;;8.46;69.59
44839;BME280;30576;42.098;24.876;2023-03-25T02:11:33;99439.06;;;8.64;68.31
44839;BME280;30576;42.098;24.876;2023-03-25T02:14:01;99433.22;;;8.32;68.65
44839;BME280;30576;42.098;24.876;2023-03-25T02:16:47;99430.69;;;8.23;68.92
44839;BME280;30576;42.098;24.876;2023-03-25T02:27:17;99437.09;;;7.91;70.84
44839;BME280;30576;42.098;24.876;2023-03-25T02:35:11;99436.31;;;7.80;73.88
44839;BME280;30576;42.098;24.876;2023-03-25T02:40:25;99426.44;;;8.11;72.67
44839;BME280;30576;42.098;24.876;2023-03-25T02:42:58;99425.53;;;8.11;72.38
44839;BME280;30576;42.098;24.876;2023-03-25T02:45:29;99423.81;;;8.10;71.82
44839;BME280;30576;42.098;24.876;2023-03-25T02:48:00;99421.28;;;7.97;70.67
44839;BME280;30576;42.098;24.876;2023-03-25T02:50:32;99422.94;;;8.07;68.64
44839;BME280;30576;42.098;24.876;2023-03-25T02:52:59;99423.25;;;7.70;69.54
44839;BME280;30576;42.098;24.876;2023-03-25T02:55:25;99419.72;;;7.76;69.63
44839;BME280;30576;42.098;24.876;2023-03-25T02:57:54;99425.75;;;7.86;69.32
44839;BME280;30576;42.098;24.876;2023-03-25T03:00:22;99420.59;;;7.74;69.37
44839;BME280;30576;42.098;24.876;2023-03-25T03:03:06;99419.69;;;7.78;69.58
44839;BME280;30576;42.098;24.876;2023-03-25T03:05:45;99427.59;;;7.76;69.78
44839;BME280;30576;42.098;24.876;2023-03-25T03:11:12;99407.28;;;7.95;69.46
44839;BME280;30576;42.098;24.876;2023-03-25T03:19:08;99392.09;;;7.21;70.16
44839;BME280;30576;42.098;24.876;2023-03-25T03:21:47;99390.31;;;7.29;70.93
44839;BME280;30576;42.098;24.876;2023-03-25T03:24:26;99388.53;;;7.31;70.49
44839;BME280;30576;42.098;24.876;2023-03-25T03:27:01;99390.28;;;7.35;70.64
44839;BME280;30576;42.098;24.876;2023-03-25T03:29:33;99391.09;;;7.42;70.85
44839;BME280;30576;42.098;24.876;2023-03-25T03:34:33;99389.44;;;7.26;71.03
44839;BME280;30576;42.098;24.876;2023-03-25T03:37:07;99390.28;;;7.34;71.34
44839;BME280;30576;42.098;24.876;2023-03-25T03:39:35;99383.16;;;7.50;70.99
44839;BME280;30576;42.098;24.876;2023-03-25T03:42:09;99389.47;;;7.20;71.89
44839;BME280;30576;42.098;24.876;2023-03-25T03:44:37;99384.97;;;7.42;71.42
44839;BME280;30576;42.098;24.876;2023-03-25T03:47:09;99386.66;;;7.49;71.25
44839;BME280;30576;42.098;24.876;2023-03-25T03:49:44;99386.69;;;7.44;71.87
44839;BME280;30576;42.098;24.876;2023-03-25T03:52:12;99390.25;;;7.40;72.61
44839;BME280;30576;42.098;24.876;2023-03-25T03:54:46;99392.81;;;7.46;71.75
44839;BME280;30576;42.098;24.876;2023-03-25T04:05:06;99388.50;;;7.34;73.31
44839;BME280;30576;42.098;24.876;2023-03-25T04:12:36;99386.72;;;7.40;72.97
44839;BME280;30576;42.098;24.876;2023-03-25T04:15:04;99380.56;;;7.45;72.52
44839;BME280;30576;42.098;24.876;2023-03-25T04:17:29;99387.63;;;7.37;72.94
44839;BME280;30576;42.098;24.876;2023-03-25T04:19:56;99387.56;;;7.48;72.22
44839;BME280;30576;42.098;24.876;2023-03-25T04:22:22;99388.38;;;7.53;72.05
44839;BME280;30576;42.098;24.876;2023-03-25T04:24:48;99391.00;;;7.55;71.70
44839;BME280;30576;42.098;24.876;2023-03-25T04:27:17;99385.88;;;7.34;71.06
44839;BME280;30576;42.098;24.876;2023-03-25T04:29:44;99391.09;;;7.39;71.10
44839;BME280;30576;42.098;24.876;2023-03-25T04:32:11;99392.00;;;7.37;71.62
44839;BME280;30576;42.098;24.876;2023-03-25T04:34:37;99392.81;;;7.45;71.09
44839;BME280;30576;42.098;24.876;2023-03-25T04:37:02;99392.84;;;7.42;70.90
44839;BME280;30576;42.098;24.876;2023-03-25T04:39:28;99399.66;;;7.66;70.68
44839;BME280;30576;42.098;24.876;2023-03-25T04:41:56;99405.81;;;7.65;70.60
44839;BME280;30576;42.098;24.876;2023-03-25T04:44:22;99403.28;;;7.51;70.51
44839;BME280;30576;42.098;24.876;2023-03-25T04:46:49;99404.06;;;7.61;70.91
44839;BME280;30576;42.098;24.876;2023-03-25T04:49:16;99404.94;;;7.61;69.55
44839;BME280;30576;42.098;24.876;2023-03-25T04:51:43;99409.50;;;7.34;69.85
44839;BME280;30576;42.098;24.876;2023-03-25T04:54:13;99416.50;;;7.37;70.29
44839;BME280;30576;42.098;24.876;2023-03-25T04:56:38;99412.16;;;7.30;71.08
44839;BME280;30576;42.098;24.876;2023-03-25T04:59:04;99411.28;;;7.32;71.15
44839;BME280;30576;42.098;24.876;2023-03-25T05:01:30;99418.28;;;7.30;71.91
44839;BME280;30576;42.098;24.876;2023-03-25T05:03:56;99419.09;;;7.43;72.14
44839;BME280;30576;42.098;24.876;2023-03-25T05:06:28;99416.38;;;7.56;71.92
44839;BME280;30576;42.098;24.876;2023-03-25T05:08:54;99416.44;;;7.48;72.62
44839;BME280;30576;42.098;24.876;2023-03-25T05:11:19;99409.34;;;7.59;73.44
44839;BME280;30576;42.098;24.876;2023-03-25T05:13:45;99408.50;;;7.54;74.39
44839;BME280;30576;42.098;24.876;2023-03-25T05:16:10;99408.31;;;7.79;74.34
44839;BME280;30576;42.098;24.876;2023-03-25T05:18:35;99402.06;;;7.92;74.74
44839;BME280;30576;42.098;24.876;2023-03-25T05:21:01;99404.50;;;8.11;74.56
44839;BME280;30576;42.098;24.876;2023-03-25T05:23:26;99400.88;;;8.25;74.50
44839;BME280;30576;42.098;24.876;2023-03-25T05:25:52;99406.88;;;8.38;74.06
44839;BME280;30576;42.098;24.876;2023-03-25T05:28:18;99403.25;;;8.53;73.05
44839;BME280;30576;42.098;24.876;2023-03-25T05:30:44;99403.16;;;8.59;72.95
44839;BME280;30576;42.098;24.876;2023-03-25T05:33:11;99397.66;;;8.81;73.14
44839;BME280;30576;42.098;24.876;2023-03-25T05:35:37;99396.50;;;9.02;72.13
44839;BME280;30576;42.098;24.876;2023-03-25T05:38:03;99403.41;;;9.09;71.78
44839;BME280;30576;42.098;24.876;2023-03-25T05:40:29;99400.50;;;9.29;71.45
44839;BME280;30576;42.098;24.876;2023-03-25T05:42:54;99401.22;;;9.42;71.20
44839;BME280;30576;42.098;24.876;2023-03-25T05:45:20;99395.34;;;9.81;70.49
44839;BME280;30576;42.098;24.876;2023-03-25T05:47:46;99402.09;;;9.96;70.47
44839;BME280;30576;42.098;24.876;2023-03-25T05:50:11;99396.19;;;10.33;69.11
44839;BME280;30576;42.098;24.876;2023-03-25T05:52:38;99399.78;;;10.29;68.21
44839;BME280;30576;42.098;24.876;2023-03-25T05:55:06;99386.56;;;10.77;68.00
44839;BME280;30576;42.098;24.876;2023-03-25T05:57:31;99389.38;;;11.10;65.93
44839;BME280;30576;42.098;24.876;2023-03-25T05:59:56;99395.88;;;10.93;65.30
44839;BME280;30576;42.098;24.876;2023-03-25T06:02:22;99398.28;;;11.45;64.93
44839;BME280;30576;42.098;24.876;2023-03-25T06:04:47;99396.00;;;11.65;64.16
44839;BME280;30576;42.098;24.876;2023-03-25T06:07:15;99389.53;;;11.79;63.29
44839;BME280;30576;42.098;24.876;2023-03-25T06:09:46;99396.56;;;12.16;61.96
44839;BME280;30576;42.098;24.876;2023-03-25T06:12:13;99393.66;;;12.25;61.18
44839;BME280;30576;42.098;24.876;2023-03-25T06:14:38;99395.91;;;12.41;60.51
44839;BME280;30576;42.098;24.876;2023-03-25T06:17:07;99394.56;;;12.57;60.54
44839;BME280;30576;42.098;24.876;2023-03-25T06:19:32;99390.44;;;12.78;59.08
44839;BME280;30576;42.098;24.876;2023-03-25T06:22:03;99392.91;;;12.84;59.59
44839;BME280;30576;42.098;24.876;2023-03-25T06:24:28;99389.50;;;13.11;58.18
44839;BME280;30576;42.098;24.876;2023-03-25T06:26:53;99391.19;;;13.13;58.89
44839;BME280;30576;42.098;24.876;2023-03-25T06:29:19;99383.50;;;13.34;57.04
44839;BME280;30576;42.098;24.876;2023-03-25T06:31:44;99387.63;;;13.44;56.57
44839;BME280;30576;42.098;24.876;2023-03-25T06:34:10;99389.09;;;13.81;56.27
44839;BME280;30576;42.098;24.876;2023-03-25T06:36:35;99381.84;;;13.86;56.36
44839;BME280;30576;42.098;24.876;2023-03-25T06:39:00;99382.84;;;14.09;55.58
44839;BME280;30576;42.098;24.876;2023-03-25T06:41:26;99384.25;;;14.44;54.33
44839;BME280;30576;42.098;24.876;2023-03-25T06:43:51;99374.50;;;14.70;56.74
44839;BME280;30576;42.098;24.876;2023-03-25T06:46:16;99380.72;;;15.16;54.92
44839;BME280;30576;42.098;24.876;2023-03-25T06:48:42;99379.78;;;14.95;54.06
44839;BME280;30576;42.098;24.876;2023-03-25T06:51:07;99381.66;;;14.68;52.87
44839;BME280;30576;42.098;24.876;2023-03-25T06:53:32;99375.84;;;14.57;52.53
44839;BME280;30576;42.098;24.876;2023-03-25T06:55:58;99378.50;;;14.82;53.25
44839;BME280;30576;42.098;24.876;2023-03-25T06:58:23;99376.19;;;15.42;52.87
44839;BME280;30576;42.098;24.876;2023-03-25T07:00:52;99384.25;;;16.05;53.30
44839;BME280;30576;42.098;24.876;2023-03-25T07:03:17;99376.03;;;15.89;51.09
44839;BME280;30576;42.098;24.876;2023-03-25T07:05:43;99372.13;;;16.60;49.52
44839;BME280;30576;42.098;24.876;2023-03-25T07:08:08;99378.03;;;16.27;48.05
44839;BME280;30576;42.098;24.876;2023-03-25T07:10:33;99377.03;;;16.69;49.02
44839;BME280;30576;42.098;24.876;2023-03-25T07:12:59;99364.47;;;17.30;45.57
44839;BME280;30576;42.098;24.876;2023-03-25T07:15:24;99368.16;;;16.29;48.36
44839;BME280;30576;42.098;24.876;2023-03-25T07:17:49;99367.25;;;16.90;45.95
44839;BME280;30576;42.098;24.876;2023-03-25T07:20:15;99364.28;;;17.15;47.22
44839;BME280;30576;42.098;24.876;2023-03-25T07:22:40;99365.50;;;17.27;44.26
44839;BME280;30576;42.098;24.876;2023-03-25T07:25:06;99375.13;;;16.11;47.22
44839;BME280;30576;42.098;24.876;2023-03-25T07:27:31;99367.59;;;16.62;47.61
44839;BME280;30576;42.098;24.876;2023-03-25T07:29:57;99360.13;;;17.29;48.64
44839;BME280;30576;42.098;24.876;2023-03-25T07:32:22;99363.34;;;16.97;43.63
44839;BME280;30576;42.098;24.876;2023-03-25T07:34:47;99352.47;;;17.02;43.73
44839;BME280;30576;42.098;24.876;2023-03-25T07:37:13;99354.72;;;17.30;43.26
44839;BME280;30576;42.098;24.876;2023-03-25T07:39:38;99356.72;;;16.87;44.55
44839;BME280;30576;42.098;24.876;2023-03-25T07:42:04;99357.38;;;16.92;45.26
44839;BME280;30576;42.098;24.876;2023-03-25T07:44:30;99353.38;;;16.82;45.40
44839;BME280;30576;42.098;24.876;2023-03-25T07:46:55;99346.38;;;17.56;44.74
44839;BME280;30576;42.098;24.876;2023-03-25T07:49:20;99340.91;;;18.29;46.66
44839;BME280;30576;42.098;24.876;2023-03-25T07:51:46;99341.09;;;18.25;44.25
44839;BME280;30576;42.098;24.876;2023-03-25T07:54:11;99343.00;;;18.06;42.82
44839;BME280;30576;42.098;24.876;2023-03-25T07:56:37;99344.63;;;18.08;44.06
44839;BME280;30576;42.098;24.876;2023-03-25T07:59:02;99348.03;;;18.12;42.28
44839;BME280;30576;42.098;24.876;2023-03-25T08:01:28;99337.19;;;18.66;42.52
44839;BME280;30576;42.098;24.876;2023-03-25T08:03:53;99338.88;;;19.01;42.45
44839;BME280;30576;42.098;24.876;2023-03-25T08:06:18;99327.69;;;18.94;40.66
44839;BME280;30576;42.098;24.876;2023-03-25T08:08:44;99340.03;;;18.46;40.58
44839;BME280;30576;42.098;24.876;2023-03-25T08:11:09;99322.75;;;18.53;40.91
44839;BME280;30576;42.098;24.876;2023-03-25T08:13:35;99321.75;;;18.71;39.81
44839;BME280;30576;42.098;24.876;2023-03-25T08:16:00;99317.97;;;18.75;40.12
44839;BME280;30576;42.098;24.876;2023-03-25T08:18:26;99315.97;;;18.63;42.57
44839;BME280;30576;42.098;24.876;2023-03-25T08:20:51;99319.75;;;18.92;41.29
44839;BME280;30576;42.098;24.876;2023-03-25T08:23:18;99311.91;;;18.89;41.64
44839;BME280;30576;42.098;24.876;2023-03-25T08:25:44;99311.19;;;18.86;41.13
44839;BME280;30576;42.098;24.876;2023-03-25T08:28:13;99317.19;;;18.73;41.86
44839;BME280;30576;42.098;24.876;2023-03-25T08:30:41;99317.41;;;19.02;42.66
44839;BME280;30576;42.098;24.876;2023-03-25T08:33:07;99314.66;;;19.04;41.89
44839;BME280;30576;42.098;24.876;2023-03-25T08:35:34;99315.81;;;19.62;41.84
44839;BME280;30576;42.098;24.876;2023-03-25T08:38:00;99319.44;;;19.61;41.81
44839;BME280;30576;42.098;24.876;2023-03-25T08:40:29;99321.91;;;19.96;41.38
44839;BME280;30576;42.098;24.876;2023-03-25T08:42:54;99321.81;;;19.81;40.37
44839;BME280;30576;42.098;24.876;2023-03-25T08:45:19;99313.97;;;19.78;39.53
44839;BME280;30576;42.098;24.876;2023-03-25T08:47:45;99305.03;;;19.94;39.71
44839;BME280;30576;42.098;24.876;2023-03-25T08:50:11;99313.56;;;19.70;39.81
44839;BME280;30576;42.098;24.876;2023-03-25T08:52:36;99310.13;;;19.68;40.29
44839;BME280;30576;42.098;24.876;2023-03-25T08:55:02;99300.88;;;20.18;40.35
44839;BME280;30576;42.098;24.876;2023-03-25T08:57:27;99295.16;;;20.25;39.60
44839;BME280;30576;42.098;24.876;2023-03-25T08:59:52;99291.38;;;19.98;39.23
44839;BME280;30576;42.098;24.876;2023-03-25T09:02:18;99284.00;;;19.57;40.12
44839;BME280;30576;42.098;24.876;2023-03-25T09:04:43;99275.53;;;19.49;40.37
44839;BME280;30576;42.098;24.876;2023-03-25T09:07:08;99271.25;;;20.07;39.97
44839;BME280;30576;42.098;24.876;2023-03-25T09:09:37;99274.78;;;19.47;39.50
44839;BME280;30576;42.098;24.876;2023-03-25T09:12:03;99266.69;;;19.32;40.69
44839;BME280;30576;42.098;24.876;2023-03-25T09:14:29;99259.75;;;19.44;44.06
44839;BME280;30576;42.098;24.876;2023-03-25T09:16:54;99252.88;;;19.40;39.81
44839;BME280;30576;42.098;24.876;2023-03-25T09:19:19;99251.06;;;19.71;42.63
44839;BME280;30576;42.098;24.876;2023-03-25T09:21:45;99245.53;;;19.74;41.79
44839;BME280;30576;42.098;24.876;2023-03-25T09:24:10;99245.59;;;20.03;39.82
44839;BME280;30576;42.098;24.876;2023-03-25T09:26:36;99241.97;;;19.90;40.54
44839;BME280;30576;42.098;24.876;2023-03-25T09:29:02;99246.13;;;19.79;40.77
44839;BME280;30576;42.098;24.876;2023-03-25T09:31:27;99237.47;;;20.04;39.40
44839;BME280;30576;42.098;24.876;2023-03-25T09:33:52;99221.44;;;20.19;39.78
44839;BME280;30576;42.098;24.876;2023-03-25T09:36:18;99219.97;;;20.28;39.49
44839;BME280;30576;42.098;24.876;2023-03-25T09:38:43;99226.69;;;20.20;40.26
44839;BME280;30576;42.098;24.876;2023-03-25T09:41:19;99222.06;;;19.94;41.13
44839;BME280;30576;42.098;24.876;2023-03-25T09:43:54;99221.22;;;19.63;42.10
44839;BME280;30576;42.098;24.876;2023-03-25T09:46:22;99217.75;;;19.77;41.85
44839;BME280;30576;42.098;24.876;2023-03-25T09:48:47;99212.81;;;19.85;41.58
44839;BME280;30576;42.098;24.876;2023-03-25T09:51:18;99206.47;;;19.86;40.33
44839;BME280;30576;42.098;24.876;2023-03-25T09:53:45;99198.19;;;20.05;40.77
44839;BME280;30576;42.098;24.876;2023-03-25T09:56:25;99188.63;;;20.15;39.55
44839;BME280;30576;42.098;24.876;2023-03-25T09:58:57;99189.50;;;20.16;41.60
44839;BME280;30576;42.098;24.876;2023-03-25T10:14:26;99157.63;;;20.26;39.76
44839;BME280;30576;42.098;24.876;2023-03-25T10:27:02;99130.19;;;20.64;39.96
44839;BME280;30576;42.098;24.876;2023-03-25T10:31:56;99113.31;;;20.49;38.68
44839;BME280;30576;42.098;24.876;2023-03-25T10:34:43;99114.28;;;20.75;38.18
44839;BME280;30576;42.098;24.876;2023-03-25T10:37:11;99106.88;;;21.06;38.45
44839;BME280;30576;42.098;24.876;2023-03-25T10:39:38;99100.16;;;21.26;37.57
44839;BME280;30576;42.098;24.876;2023-03-25T10:42:29;99096.38;;;21.28;37.15
44839;BME280;30576;42.098;24.876;2023-03-25T10:44:55;99088.59;;;21.51;36.35
44839;BME280;30576;42.098;24.876;2023-03-25T10:47:22;99085.19;;;21.49;37.84
44839;BME280;30576;42.098;24.876;2023-03-25T10:49:50;99079.72;;;21.51;37.45
44839;BME280;30576;42.098;24.876;2023-03-25T10:52:16;99083.25;;;20.85;39.82
44839;BME280;30576;42.098;24.876;2023-03-25T10:54:43;99077.16;;;20.96;38.89
44839;BME280;30576;42.098;24.876;2023-03-25T10:57:11;99080.59;;;21.24;38.16
44839;BME280;30576;42.098;24.876;2023-03-25T10:59:41;99074.50;;;21.22;37.73
44839;BME280;30576;42.098;24.876;2023-03-25T11:02:13;99068.97;;;21.51;37.11
44839;BME280;30576;42.098;24.876;2023-03-25T11:04:41;99061.88;;;21.62;37.21
44839;BME280;30576;42.098;24.876;2023-03-25T11:07:53;99052.63;;;21.79;36.26
44839;BME280;30576;42.098;24.876;2023-03-25T11:10:06;99052.63;;;21.79;37.01
44839;BME280;30576;42.098;24.876;2023-03-25T11:12:32;99049.53;;;21.73;36.67
44839;BME280;30576;42.098;24.876;2023-03-25T11:14:58;99043.94;;;21.76;37.19
44839;BME280;30576;42.098;24.876;2023-03-25T11:17:25;99039.63;;;21.86;36.54
44839;BME280;30576;42.098;24.876;2023-03-25T11:22:27;99031.59;;;21.86;35.76
44839;BME280;30576;42.098;24.876;2023-03-25T11:25:06;99023.19;;;21.91;36.62
44839;BME280;30576;42.098;24.876;2023-03-25T11:27:41;99029.13;;;22.20;36.08
44839;BME280;30576;42.098;24.876;2023-03-25T11:30:18;99021.25;;;22.54;37.04
44839;BME280;30576;42.098;24.876;2023-03-25T11:32:44;99013.34;;;22.40;36.68
44839;BME280;30576;42.098;24.876;2023-03-25T11:35:24;99012.19;;;22.79;34.76
44839;BME280;30576;42.098;24.876;2023-03-25T11:38:00;99002.25;;;22.68;35.35
44839;BME280;30576;42.098;24.876;2023-03-25T11:40:27;98998.16;;;22.87;34.28
44839;BME280;30576;42.098;24.876;2023-03-25T11:42:56;98998.53;;;22.94;34.53
44839;BME280;30576;42.098;24.876;2023-03-25T11:47:48;98984.00;;;23.07;35.50
44839;BME280;30576;42.098;24.876;2023-03-25T11:50:22;98972.91;;;23.12;34.30
44839;BME280;30576;42.098;24.876;2023-03-25T11:52:48;98974.44;;;22.81;35.06
44839;BME280;30576;42.098;24.876;2023-03-25T11:55:22;98966.28;;;23.05;34.31
44839;BME280;30576;42.098;24.876;2023-03-25T11:57:48;98970.44;;;22.51;35.42
44839;BME280;30576;42.098;24.876;2023-03-25T12:02:57;98952.56;;;22.85;35.09
44839;BME280;30576;42.098;24.876;2023-03-25T12:05:23;98946.34;;;22.85;34.80
44839;BME280;30576;42.098;24.876;2023-03-25T12:07:50;98943.44;;;23.11;33.93
44839;BME280;30576;42.098;24.876;2023-03-25T12:15:09;98927.19;;;23.46;32.51
44839;BME280;30576;42.098;24.876;2023-03-25T12:20:14;98921.56;;;23.49;32.63
44839;BME280;30576;42.098;24.876;2023-03-25T12:22:52;98923.53;;;23.36;34.60
44839;BME280;30576;42.098;24.876;2023-03-25T12:25:23;98913.47;;;23.49;33.93
44839;BME280;30576;42.098;24.876;2023-03-25T12:28:10;98917.06;;;23.50;33.75
44839;BME280;30576;42.098;24.876;2023-03-25T12:30:55;98912.88;;;23.46;33.97
44839;BME280;30576;42.098;24.876;2023-03-25T12:43:14;98888.75;;;23.67;33.87
44839;BME280;30576;42.098;24.876;2023-03-25T12:53:55;98875.81;;;23.60;34.10
44839;BME280;30576;42.098;24.876;2023-03-25T12:56:31;98869.22;;;23.42;35.48
44839;BME280;30576;42.098;24.876;2023-03-25T12:59:04;98864.28;;;23.58;35.89
44839;BME280;30576;42.098;24.876;2023-03-25T13:04:26;98855.16;;;23.50;35.73
44839;BME280;30576;42.098;24.876;2023-03-25T13:07:11;98852.34;;;23.51;35.36
44839;BME280;30576;42.098;24.876;2023-03-25T13:12:12;98842.03;;;23.56;35.10
44839;BME280;30576;42.098;24.876;2023-03-25T13:14:40;98837.00;;;23.63;35.39
44839;BME280;30576;42.098;24.876;2023-03-25T13:17:10;98824.91;;;23.57;35.05
44839;BME280;30576;42.098;24.876;2023-03-25T13:19:37;98843.66;;;23.91;35.65
44839;BME280;30576;42.098;24.876;2023-03-25T13:22:12;98834.19;;;23.97;35.90
44839;BME280;30576;42.098;24.876;2023-03-25T13:24:51;98830.84;;;23.72;34.75
44839;BME280;30576;42.098;24.876;2023-03-25T13:27:18;98831.69;;;23.40;34.95
44839;BME280;30576;42.098;24.876;2023-03-25T13:29:47;98821.75;;;23.41;35.20
44839;BME280;30576;42.098;24.876;2023-03-25T13:37:49;98813.81;;;23.39;35.52
44839;BME280;30576;42.098;24.876;2023-03-25T13:40:21;98813.56;;;23.42;35.25
44839;BME280;30576;42.098;24.876;2023-03-25T13:45:30;98812.00;;;23.06;33.46
44839;BME280;30576;42.098;24.876;2023-03-25T13:50:26;98806.97;;;23.35;32.93
44839;BME280;30576;42.098;24.876;2023-03-25T13:53:02;98810.56;;;23.68;32.30
44839;BME280;30576;42.098;24.876;2023-03-25T13:55:43;98801.16;;;23.63;31.79
44839;BME280;30576;42.098;24.876;2023-03-25T13:58:28;98790.38;;;23.63;32.51
44839;BME280;30576;42.098;24.876;2023-03-25T14:01:06;98788.34;;;23.55;32.66
44839;BME280;30576;42.098;24.876;2023-03-25T14:14:11;98784.75;;;23.98;32.90
44839;BME280;30576;42.098;24.876;2023-03-25T14:16:40;98773.19;;;24.07;33.59
44839;BME280;30576;42.098;24.876;2023-03-25T14:19:14;98769.19;;;23.69;32.55
44839;BME280;30576;42.098;24.876;2023-03-25T14:21:43;98765.69;;;23.57;32.13
44839;BME280;30576;42.098;24.876;2023-03-25T14:27:05;98761.72;;;23.73;31.45
44839;BME280;30576;42.098;24.876;2023-03-25T14:32:45;98768.91;;;23.51;31.77
44839;BME280;30576;42.098;24.876;2023-03-25T14:34:51;98761.53;;;23.53;31.21
44839;BME280;30576;42.098;24.876;2023-03-25T14:39:42;98751.84;;;23.62;31.30
44839;BME280;30576;42.098;24.876;2023-03-25T14:42:10;98744.81;;;23.50;30.38
44839;BME280;30576;42.098;24.876;2023-03-25T14:44:40;98743.81;;;23.51;29.86
44839;BME280;30576;42.098;24.876;2023-03-25T14:52:18;98732.97;;;23.41;31.33
44839;BME280;30576;42.098;24.876;2023-03-25T14:54:50;98731.00;;;23.43;31.85
44839;BME280;30576;42.098;24.876;2023-03-25T14:57:24;98738.28;;;23.31;31.61
44839;BME280;30576;42.098;24.876;2023-03-25T14:59:54;98730.78;;;23.35;31.45
44839;BME280;30576;42.098;24.876;2023-03-25T15:02:21;98733.84;;;23.63;32.09
44839;BME280;30576;42.098;24.876;2023-03-25T15:04:59;98723.88;;;23.53;31.53
44839;BME280;30576;42.098;24.876;2023-03-25T15:07:37;98735.78;;;23.39;31.82
44839;BME280;30576;42.098;24.876;2023-03-25T15:10:05;98733.94;;;23.40;32.14
44839;BME280;30576;42.098;24.876;2023-03-25T15:12:31;98742.00;;;23.51;32.15
44839;BME280;30576;42.098;24.876;2023-03-25T15:15:02;98738.94;;;23.45;32.68
44839;BME280;30576;42.098;24.876;2023-03-25T15:17:46;98737.84;;;23.47;32.29
44839;BME280;30576;42.098;24.876;2023-03-25T15:25:31;98761.84;;;23.71;32.02
44839;BME280;30576;42.098;24.876;2023-03-25T15:33:29;98765.00;;;23.44;36.33